createdAt,value
2023-01-25T00:01:54.487Z,82.17
2023-01-25T00:04:24.099Z,81.57
2023-01-25T00:06:53.119Z,81.93
2023-01-25T00:09:22.542Z,81.78
2023-01-25T00:11:58.441Z,81.67
2023-01-25T00:14:26.887Z,81.48
2023-01-25T00:16:55.271Z,81.38
2023-01-25T00:19:24.069Z,81.50
2023-01-25T00:21:52.395Z,81.54
2023-01-25T00:24:23.021Z,81.61
2023-01-25T00:26:51.494Z,81.33
2023-01-25T00:29:21.304Z,81.46
2023-01-25T00:32:03.154Z,81.07
2023-01-25T00:34:45.912Z,81.46
2023-01-25T00:37:26.317Z,81.32
2023-01-25T00:39:54.686Z,81.15
2023-01-25T00:42:23.254Z,80.94
2023-01-25T00:44:52.986Z,81.08
2023-01-25T00:47:21.359Z,80.84
2023-01-25T00:49:50.349Z,81.07
2023-01-25T00:52:18.681Z,81.00
2023-01-25T00:54:47.902Z,80.74
2023-01-25T00:57:16.410Z,81.04
2023-01-25T00:59:45.949Z,80.69
2023-01-25T01:02:15.752Z,80.78
2023-01-25T01:04:44.208Z,80.97
2023-01-25T01:07:14.164Z,80.97
2023-01-25T01:09:42.826Z,80.92
2023-01-25T01:12:11.475Z,80.78
2023-01-25T01:14:40.231Z,80.59
2023-01-25T01:17:08.567Z,80.62
2023-01-25T01:19:38.293Z,80.74
2023-01-25T01:22:06.807Z,80.52
2023-01-25T01:24:35.258Z,80.61
2023-01-25T01:27:03.648Z,80.59
2023-01-25T01:29:32.162Z,80.94
2023-01-25T01:32:00.642Z,80.97
2023-01-25T01:34:29.102Z,80.49
2023-01-25T01:36:58.857Z,80.95
2023-01-25T01:39:27.335Z,80.69
2023-01-25T01:41:55.726Z,80.74
2023-01-25T01:44:44.796Z,80.34
2023-01-25T01:47:18.333Z,80.64
2023-01-25T01:49:52.446Z,80.52
2023-01-25T01:52:29.300Z,80.43
2023-01-25T01:55:01.968Z,80.56
2023-01-25T01:57:35.581Z,80.61
2023-01-25T02:00:09.767Z,80.21
2023-01-25T02:02:41.486Z,80.68
2023-01-25T02:05:16.122Z,80.52
2023-01-25T02:07:48.320Z,80.61
2023-01-25T02:10:17.311Z,80.25
2023-01-25T02:12:46.596Z,80.28
2023-01-25T02:15:15.301Z,80.58
2023-01-25T02:17:43.995Z,80.64
2023-01-25T02:20:24.473Z,80.62
2023-01-25T02:22:58.044Z,80.39
2023-01-25T02:25:28.621Z,80.62
2023-01-25T02:28:01.862Z,80.44
2023-01-25T02:30:30.302Z,80.40
2023-01-25T02:32:58.655Z,80.32
2023-01-25T02:35:39.541Z,80.04
2023-01-25T02:38:08.804Z,80.14
2023-01-25T02:40:46.948Z,80.39
2023-01-25T02:43:16.467Z,80.47
2023-01-25T02:45:48.713Z,80.30
2023-01-25T02:48:17.124Z,80.17
2023-01-25T02:50:45.492Z,80.28
2023-01-25T02:53:13.963Z,80.41
2023-01-25T02:55:43.779Z,80.20
2023-01-25T02:58:12.210Z,80.55
2023-01-25T03:00:40.651Z,80.49
2023-01-25T03:03:09.014Z,80.15
2023-01-25T03:05:37.468Z,80.48
2023-01-25T03:08:06.135Z,80.22
2023-01-25T03:10:34.503Z,80.36
2023-01-25T03:13:04.453Z,80.30
2023-01-25T03:15:42.759Z,80.22
2023-01-25T03:18:11.115Z,80.33
2023-01-25T03:20:39.448Z,80.21
2023-01-25T03:23:07.755Z,80.44
2023-01-25T03:25:36.124Z,80.46
2023-01-25T03:28:05.807Z,80.33
2023-01-25T03:30:34.129Z,80.38
2023-01-25T03:33:02.518Z,80.11
2023-01-25T03:35:32.257Z,80.11
2023-01-25T03:38:00.588Z,80.36
2023-01-25T03:40:29.056Z,80.18
2023-01-25T03:42:57.343Z,80.29
2023-01-25T03:45:27.273Z,80.15
2023-01-25T03:47:55.566Z,80.44
2023-01-25T03:50:23.998Z,80.54
2023-01-25T03:53:27.284Z,80.26
2023-01-25T03:55:57.075Z,80.19
2023-01-25T03:58:25.956Z,80.21
2023-01-25T04:00:58.510Z,80.45
2023-01-25T04:03:30.184Z,80.50
2023-01-25T04:05:59.774Z,80.33
2023-01-25T04:08:28.346Z,80.45
2023-01-25T04:10:58.083Z,80.36
2023-01-25T04:13:26.579Z,80.47
2023-01-25T04:15:59.688Z,80.25
2023-01-25T04:18:28.052Z,80.22
2023-01-25T04:20:57.570Z,80.28
2023-01-25T04:23:27.222Z,80.15
2023-01-25T04:25:56.359Z,80.51
2023-01-25T04:28:25.570Z,80.49
2023-01-25T04:30:56.392Z,80.28
2023-01-25T04:33:25.425Z,79.82
2023-01-25T04:35:53.873Z,80.20
2023-01-25T04:38:23.279Z,80.55
2023-01-25T04:40:52.061Z,80.35
2023-01-25T04:43:21.780Z,80.62
2023-01-25T04:45:50.271Z,80.16
2023-01-25T04:48:19.990Z,80.44
2023-01-25T04:50:48.357Z,80.20
2023-01-25T04:53:16.790Z,80.54
2023-01-25T04:55:48.184Z,80.31
2023-01-25T04:58:16.917Z,80.21
2023-01-25T05:00:45.318Z,80.09
2023-01-25T05:03:13.843Z,80.48
2023-01-25T05:05:47.155Z,80.20
2023-01-25T05:08:15.498Z,80.57
2023-01-25T05:10:43.820Z,80.33
2023-01-25T05:13:12.151Z,80.31
2023-01-25T05:15:40.613Z,80.23
2023-01-25T05:18:08.970Z,80.54
2023-01-25T05:20:37.367Z,80.50
2023-01-25T05:23:07.129Z,80.44
2023-01-25T05:25:52.954Z,80.61
2023-01-25T05:28:21.433Z,80.20
2023-01-25T05:30:49.764Z,80.31
2023-01-25T05:33:18.119Z,80.34
2023-01-25T05:35:46.479Z,80.45
2023-01-25T05:38:16.176Z,80.14
2023-01-25T05:40:44.573Z,80.48
2023-01-25T05:43:13.048Z,80.54
2023-01-25T05:45:41.433Z,80.45
2023-01-25T05:48:09.890Z,80.23
2023-01-25T05:50:38.225Z,80.31
2023-01-25T05:53:06.576Z,80.48
2023-01-25T05:55:37.726Z,80.62
2023-01-25T05:58:06.289Z,80.32
2023-01-25T06:00:34.663Z,80.24
2023-01-25T06:03:03.441Z,80.58
2023-01-25T06:05:31.892Z,80.18
2023-01-25T06:08:00.385Z,80.48
2023-01-25T06:10:28.774Z,80.35
2023-01-25T06:13:01.701Z,80.23
2023-01-25T06:15:30.021Z,80.53
2023-01-25T06:17:58.341Z,80.15
2023-01-25T06:20:26.802Z,80.28
2023-01-25T06:22:55.600Z,80.13
2023-01-25T06:25:23.950Z,80.06
2023-01-25T06:27:52.355Z,80.27
2023-01-25T06:30:22.268Z,80.21
2023-01-25T06:32:50.868Z,80.34
2023-01-25T06:35:19.244Z,80.29
2023-01-25T06:37:48.072Z,80.38
2023-01-25T06:40:17.139Z,79.96
2023-01-25T06:42:45.509Z,80.56
2023-01-25T06:45:13.944Z,80.49
2023-01-25T06:47:43.685Z,80.43
2023-01-25T06:50:12.171Z,80.42
2023-01-25T06:52:53.266Z,80.16
2023-01-25T06:55:22.491Z,80.48
2023-01-25T06:57:50.830Z,80.34
2023-01-25T07:00:20.153Z,80.49
2023-01-25T07:02:49.938Z,80.09
2023-01-25T07:05:18.636Z,80.08
2023-01-25T07:07:53.800Z,79.97
2023-01-25T07:10:22.184Z,80.03
2023-01-25T07:12:50.530Z,80.46
2023-01-25T07:15:18.873Z,80.09
2023-01-25T07:17:47.290Z,80.25
2023-01-25T07:20:17.387Z,80.31
2023-01-25T07:22:45.971Z,80.02
2023-01-25T07:25:15.171Z,80.58
2023-01-25T07:27:43.529Z,80.48
2023-01-25T07:30:12.882Z,80.16
2023-01-25T07:32:41.255Z,80.07
2023-01-25T07:35:10.443Z,80.36
2023-01-25T07:37:40.984Z,80.34
2023-01-25T07:40:10.372Z,80.41
2023-01-25T07:42:38.759Z,79.84
2023-01-25T07:45:08.544Z,79.72
2023-01-25T07:47:37.949Z,79.64
2023-01-25T07:50:07.348Z,79.68
2023-01-25T07:52:35.762Z,80.00
2023-01-25T07:55:06.397Z,79.95
2023-01-25T07:57:36.646Z,79.97
2023-01-25T08:00:07.243Z,79.90
2023-01-25T08:02:35.810Z,79.99
2023-01-25T08:05:06.298Z,79.79
2023-01-25T08:07:34.782Z,80.20
2023-01-25T08:10:03.262Z,79.51
2023-01-25T08:12:38.011Z,79.95
2023-01-25T08:15:08.563Z,80.09
2023-01-25T08:17:37.034Z,80.03
2023-01-25T08:20:07.531Z,80.07
2023-01-25T08:22:36.290Z,79.95
2023-01-25T08:25:05.000Z,79.56
2023-01-25T08:27:33.599Z,79.74
2023-01-25T08:30:03.429Z,79.54
2023-01-25T08:32:31.752Z,79.87
2023-01-25T08:35:00.081Z,79.61
2023-01-25T08:37:29.802Z,79.55
2023-01-25T08:39:59.907Z,79.82
2023-01-25T08:42:28.333Z,79.50
2023-01-25T08:44:56.695Z,79.47
2023-01-25T08:47:26.843Z,79.61
2023-01-25T08:49:55.537Z,79.82
2023-01-25T08:52:23.982Z,79.74
2023-01-25T08:54:52.382Z,79.75
2023-01-25T08:57:20.773Z,79.55
2023-01-25T08:59:49.152Z,79.80
2023-01-25T09:02:19.296Z,79.55
2023-01-25T09:04:52.488Z,79.73
2023-01-25T09:07:20.781Z,79.33
2023-01-25T09:09:49.120Z,79.34
2023-01-25T09:12:17.501Z,79.45
2023-01-25T09:14:45.832Z,79.32
2023-01-25T09:17:14.193Z,79.61
2023-01-25T09:19:43.170Z,79.29
2023-01-25T09:22:12.896Z,79.23
2023-01-25T09:24:41.307Z,79.09
2023-01-25T09:27:09.684Z,79.43
2023-01-25T09:29:39.592Z,79.41
2023-01-25T09:32:10.507Z,79.21
2023-01-25T09:34:38.895Z,79.47
2023-01-25T09:37:07.260Z,79.18
2023-01-25T09:39:36.977Z,79.28
2023-01-25T09:42:46.616Z,79.17
2023-01-25T09:45:32.451Z,78.95
2023-01-25T09:48:10.540Z,79.03
2023-01-25T09:50:49.198Z,79.02
2023-01-25T09:53:24.375Z,78.99
2023-01-25T09:55:58.789Z,78.99
2023-01-25T09:58:34.916Z,78.86
2023-01-25T10:01:21.622Z,78.71
2023-01-25T10:03:58.507Z,78.98
2023-01-25T10:06:37.492Z,78.64
2023-01-25T10:09:18.544Z,78.67
2023-01-25T10:11:48.935Z,78.65
2023-01-25T10:14:19.330Z,78.54
2023-01-25T10:17:05.320Z,78.43
2023-01-25T10:19:46.954Z,78.32
2023-01-25T10:22:18.094Z,78.41
2023-01-25T10:25:05.353Z,78.20
2023-01-25T10:27:44.510Z,78.31
2023-01-25T10:30:27.404Z,78.32
2023-01-25T10:32:59.876Z,78.20
2023-01-25T10:35:35.876Z,78.42
2023-01-25T10:38:12.597Z,78.48
2023-01-25T10:40:45.592Z,78.29
2023-01-25T10:43:19.486Z,78.46
2023-01-25T10:45:48.245Z,78.43
2023-01-25T10:48:21.260Z,78.56
2023-01-25T10:50:53.816Z,78.39
2023-01-25T10:53:28.319Z,78.61
2023-01-25T10:56:19.247Z,78.63
2023-01-25T10:58:50.952Z,78.96
2023-01-25T11:01:27.933Z,78.61
2023-01-25T11:03:56.602Z,78.64
2023-01-25T11:06:34.163Z,78.84
2023-01-25T11:09:03.074Z,78.63
2023-01-25T11:11:37.114Z,78.71
2023-01-25T11:14:17.450Z,78.85
2023-01-25T11:16:48.788Z,78.55
2023-01-25T11:19:29.880Z,78.69
2023-01-25T11:21:59.949Z,78.49
2023-01-25T11:24:29.929Z,78.71
2023-01-25T11:27:17.790Z,78.64
2023-01-25T11:30:07.692Z,78.87
2023-01-25T11:32:36.657Z,78.83
2023-01-25T11:35:07.464Z,78.81
2023-01-25T11:37:48.817Z,78.79
2023-01-25T11:40:24.169Z,78.65
2023-01-25T11:43:03.678Z,78.50
2023-01-25T11:45:49.535Z,78.43
2023-01-25T11:48:43.490Z,78.64
2023-01-25T11:51:18.436Z,78.49
2023-01-25T11:54:02.641Z,78.45
2023-01-25T11:56:44.541Z,78.47
2023-01-25T11:59:31.304Z,78.56
2023-01-25T12:02:16.080Z,78.38
2023-01-25T12:05:12.689Z,78.25
2023-01-25T12:07:56.843Z,78.33
2023-01-25T12:10:35.115Z,78.05
2023-01-25T12:13:12.518Z,78.14
2023-01-25T12:16:03.298Z,78.08
2023-01-25T12:18:49.720Z,78.09
2023-01-25T12:21:33.570Z,78.07
2023-01-25T12:24:17.942Z,78.08
2023-01-25T12:26:57.364Z,78.30
2023-01-25T12:29:31.856Z,78.20
2023-01-25T12:32:07.010Z,77.84
2023-01-25T12:34:39.448Z,78.31
2023-01-25T12:37:15.821Z,78.47
2023-01-25T12:39:49.435Z,78.54
2023-01-25T12:42:21.943Z,78.40
2023-01-25T12:44:55.863Z,78.53
2023-01-25T12:47:33.266Z,78.54
2023-01-25T12:50:10.898Z,78.54
2023-01-25T12:52:46.890Z,78.73
2023-01-25T12:55:18.303Z,78.38
2023-01-25T12:57:54.881Z,78.61
2023-01-25T13:00:28.242Z,78.44
2023-01-25T13:03:10.569Z,78.80
2023-01-25T13:05:49.124Z,78.97
2023-01-25T13:08:32.077Z,79.02
2023-01-25T13:11:10.833Z,79.10
2023-01-25T13:13:39.231Z,79.23
2023-01-25T13:16:37.741Z,79.01
2023-01-25T13:19:06.369Z,79.07
2023-01-25T13:21:46.527Z,78.79
2023-01-25T13:24:24.102Z,79.06
2023-01-25T13:27:04.914Z,79.09
2023-01-25T13:29:57.815Z,78.97
2023-01-25T13:32:58.934Z,79.22
2023-01-25T13:35:44.447Z,79.41
2023-01-25T13:38:38.421Z,79.22
2023-01-25T13:41:17.216Z,79.28
2023-01-25T13:43:49.280Z,79.57
2023-01-25T13:46:23.239Z,79.60
2023-01-25T13:49:02.755Z,79.64
2023-01-25T13:51:37.535Z,79.77
2023-01-25T13:54:07.485Z,79.52
2023-01-25T13:56:37.464Z,79.54
2023-01-25T13:59:05.931Z,79.79
2023-01-25T14:01:36.780Z,79.92
2023-01-25T14:04:06.678Z,79.84
2023-01-25T14:06:39.303Z,80.05
2023-01-25T14:09:16.952Z,80.16
2023-01-25T14:11:47.677Z,80.26
2023-01-25T14:14:21.162Z,80.31
2023-01-25T14:19:38.397Z,80.22
2023-01-25T14:22:22.415Z,80.26
2023-01-25T14:25:13.281Z,80.31
2023-01-25T14:27:46.683Z,80.44
2023-01-25T14:30:21.541Z,80.08
2023-01-25T14:32:51.584Z,80.43
2023-01-25T14:35:54.540Z,80.23
2023-01-25T14:38:30.816Z,80.40
2023-01-25T14:41:07.639Z,80.79
2023-01-25T14:43:38.443Z,80.77
2023-01-25T14:46:37.095Z,80.92
2023-01-25T14:49:09.773Z,80.88
2023-01-25T14:51:44.411Z,81.00
2023-01-25T14:54:18.661Z,80.78
2023-01-25T14:56:50.554Z,81.09
2023-01-25T14:59:27.299Z,81.04
2023-01-25T15:01:58.850Z,80.76
2023-01-25T15:04:27.505Z,80.78
2023-01-25T15:06:59.148Z,81.04
2023-01-25T15:09:42.266Z,81.02
2023-01-25T15:12:29.365Z,81.01
2023-01-25T15:14:59.106Z,81.06
2023-01-25T15:17:43.044Z,81.05
2023-01-25T15:20:39.941Z,81.34
2023-01-25T15:23:23.650Z,81.05
2023-01-25T15:26:03.773Z,81.30
2023-01-25T15:28:34.450Z,81.23
2023-01-25T15:31:05.774Z,81.26
2023-01-25T15:33:35.764Z,81.50
2023-01-25T15:36:04.193Z,81.28
2023-01-25T15:38:32.552Z,81.41
2023-01-25T15:41:01.593Z,81.21
2023-01-25T15:43:33.904Z,81.09
2023-01-25T15:46:02.834Z,81.35
2023-01-25T15:48:34.491Z,81.29
2023-01-25T15:51:03.031Z,81.04
2023-01-25T15:53:31.768Z,81.34
2023-01-25T15:56:02.932Z,81.62
2023-01-25T15:58:34.584Z,81.12
2023-01-25T16:01:03.467Z,81.50
2023-01-25T16:03:32.465Z,81.42
2023-01-25T16:06:02.826Z,81.53
2023-01-25T16:08:31.938Z,81.47
2023-01-25T16:11:00.337Z,81.30
2023-01-25T16:13:28.692Z,81.50
2023-01-25T16:15:58.714Z,81.49
2023-01-25T16:18:27.092Z,81.60
2023-01-25T16:20:55.570Z,81.40
2023-01-25T16:23:23.967Z,81.87
2023-01-25T16:25:52.311Z,81.53
2023-01-25T16:28:20.611Z,81.70
2023-01-25T16:30:49.972Z,81.73
2023-01-25T16:33:24.107Z,82.02
2023-01-25T16:36:05.654Z,81.63
2023-01-25T16:38:35.397Z,81.82
2023-01-25T16:41:03.929Z,81.80
2023-01-25T16:43:42.428Z,81.69
2023-01-25T16:46:16.615Z,81.96
2023-01-25T16:48:48.350Z,81.66
2023-01-25T16:51:18.987Z,81.48
2023-01-25T16:53:49.840Z,82.04
2023-01-25T16:56:19.364Z,81.93
2023-01-25T16:58:49.094Z,81.87
2023-01-25T17:01:18.830Z,81.74
2023-01-25T17:03:48.800Z,81.88
2023-01-25T17:06:20.102Z,81.83
2023-01-25T17:08:48.944Z,81.80
2023-01-25T17:11:19.936Z,81.85
2023-01-25T17:13:52.072Z,81.95
2023-01-25T17:16:21.796Z,81.75
2023-01-25T17:18:54.764Z,82.01
2023-01-25T17:21:23.786Z,82.23
2023-01-25T17:23:52.675Z,82.05
2023-01-25T17:26:23.347Z,82.16
2023-01-25T17:28:52.369Z,82.10
2023-01-25T17:31:22.424Z,81.96
2023-01-25T17:33:52.249Z,81.80
2023-01-25T17:36:20.861Z,82.00
2023-01-25T17:38:49.881Z,82.10
2023-01-25T17:41:18.267Z,82.04
2023-01-25T17:43:57.596Z,82.38
2023-01-25T17:46:29.744Z,82.09
2023-01-25T17:49:01.062Z,81.98
2023-01-25T17:51:30.436Z,81.97
2023-01-25T17:53:59.079Z,81.99
2023-01-25T17:56:27.925Z,82.03
2023-01-25T17:58:56.721Z,81.82
2023-01-25T18:01:28.278Z,81.99
2023-01-25T18:04:00.752Z,81.84
2023-01-25T18:06:30.933Z,81.96
2023-01-25T18:09:01.268Z,81.78
2023-01-25T18:11:31.902Z,81.83
2023-01-25T18:14:02.147Z,82.12
2023-01-25T18:16:32.603Z,81.72
2023-01-25T18:19:03.033Z,82.06
2023-01-25T18:21:33.269Z,82.12
2023-01-25T18:24:04.750Z,82.13
2023-01-25T18:26:36.999Z,82.21
2023-01-25T18:29:32.114Z,82.19
2023-01-25T18:32:00.751Z,81.96
2023-01-25T18:34:30.491Z,82.15
2023-01-25T18:36:59.438Z,82.32
2023-01-25T18:39:28.163Z,82.24
2023-01-25T18:41:56.626Z,82.37
2023-01-25T18:44:25.059Z,82.33
2023-01-25T18:46:53.511Z,82.44
2023-01-25T18:49:21.839Z,82.21
2023-01-25T18:52:10.570Z,82.04
2023-01-25T18:54:39.566Z,82.04
2023-01-25T18:57:07.943Z,82.17
2023-01-25T18:59:36.296Z,82.28
2023-01-25T19:02:04.980Z,81.80
2023-01-25T19:04:33.688Z,82.24
2023-01-25T19:07:03.618Z,81.92
2023-01-25T19:09:32.279Z,82.38
2023-01-25T19:12:00.811Z,82.23
2023-01-25T19:14:29.139Z,82.27
2023-01-25T19:16:57.770Z,82.13
2023-01-25T19:19:31.796Z,82.21
2023-01-25T19:22:00.392Z,82.26
2023-01-25T19:24:30.869Z,82.30
2023-01-25T19:26:59.423Z,82.17
2023-01-25T19:29:27.841Z,82.35
2023-01-25T19:31:56.249Z,82.15
2023-01-25T19:34:24.815Z,82.35
2023-01-25T19:36:53.907Z,82.44
2023-01-25T19:39:22.435Z,82.31
2023-01-25T19:41:54.397Z,82.37
2023-01-25T19:44:23.903Z,82.56
2023-01-25T19:46:52.322Z,82.74
2023-01-25T19:49:22.361Z,82.11
2023-01-25T19:51:53.326Z,82.18
2023-01-25T19:54:23.088Z,82.34
2023-01-25T19:56:52.978Z,82.51
2023-01-25T19:59:24.841Z,82.55
2023-01-25T20:01:54.202Z,82.63
2023-01-25T20:04:24.420Z,82.47
2023-01-25T20:06:53.423Z,82.38
2023-01-25T20:09:24.942Z,82.57
2023-01-25T20:11:55.949Z,82.77
2023-01-25T20:14:24.521Z,82.43
2023-01-25T20:16:53.046Z,82.24
2023-01-25T20:19:21.472Z,82.21
2023-01-25T20:21:50.021Z,82.36
2023-01-25T20:24:18.536Z,82.51
2023-01-25T20:26:47.358Z,82.49
2023-01-25T20:29:17.121Z,82.51
2023-01-25T20:31:47.163Z,82.48
2023-01-25T20:34:18.101Z,82.41
2023-01-25T20:36:46.857Z,82.60
2023-01-25T20:39:16.676Z,82.51
2023-01-25T20:41:45.717Z,82.60
2023-01-25T20:44:17.093Z,82.40
2023-01-25T20:46:47.236Z,82.54
2023-01-25T20:49:17.194Z,82.42
2023-01-25T20:51:46.138Z,82.33
2023-01-25T20:54:15.055Z,82.58
2023-01-25T20:56:47.697Z,82.52
2023-01-25T20:59:17.817Z,82.70
2023-01-25T21:01:47.649Z,83.02
2023-01-25T21:04:16.273Z,82.69
2023-01-25T21:06:44.698Z,82.84
2023-01-25T21:09:13.602Z,82.91
2023-01-25T21:11:42.065Z,82.72
2023-01-25T21:14:10.459Z,82.84
2023-01-25T21:16:38.856Z,82.42
2023-01-25T21:19:09.447Z,82.76
2023-01-25T21:21:38.588Z,82.74
2023-01-25T21:24:07.785Z,82.83
2023-01-25T21:26:38.360Z,82.63
2023-01-25T21:29:08.002Z,82.82
2023-01-25T21:31:38.819Z,83.04
2023-01-25T21:34:09.213Z,82.76
2023-01-25T21:36:37.683Z,82.69
2023-01-25T21:39:06.151Z,82.83
2023-01-25T21:41:34.740Z,82.57
2023-01-25T21:44:21.616Z,82.46
2023-01-25T21:47:19.635Z,82.50
2023-01-25T21:49:57.348Z,82.49
2023-01-25T21:52:25.699Z,82.22
2023-01-25T21:54:54.084Z,82.25
2023-01-25T21:57:22.470Z,82.53
2023-01-25T21:59:53.162Z,82.40
2023-01-25T22:02:22.654Z,82.26
2023-01-25T22:04:52.517Z,82.48
2023-01-25T22:07:20.942Z,82.40
2023-01-25T22:09:50.302Z,82.25
2023-01-25T22:12:18.680Z,82.77
2023-01-25T22:14:47.058Z,82.62
2023-01-25T22:17:15.428Z,82.51
2023-01-25T22:19:43.866Z,82.57
2023-01-25T22:22:13.616Z,82.61
2023-01-25T22:24:41.939Z,82.79
2023-01-25T22:27:28.957Z,82.82
2023-01-25T22:29:57.337Z,82.64
2023-01-25T22:32:25.678Z,82.82
2023-01-25T22:34:55.027Z,82.78
2023-01-25T22:37:24.952Z,82.69
2023-01-25T22:39:54.460Z,82.53
2023-01-25T22:42:22.816Z,82.87
2023-01-25T22:44:51.170Z,82.62
2023-01-25T22:47:19.525Z,82.60
2023-01-25T22:49:47.865Z,82.77
2023-01-25T22:52:16.248Z,82.83
2023-01-25T22:54:46.019Z,83.16
2023-01-25T22:57:14.342Z,82.98
2023-01-25T22:59:42.684Z,82.85
2023-01-25T23:02:11.023Z,83.16
2023-01-25T23:04:39.417Z,83.10
2023-01-25T23:07:19.115Z,83.40
2023-01-25T23:09:52.432Z,83.14
2023-01-25T23:12:21.076Z,83.15
2023-01-25T23:14:52.861Z,82.77
2023-01-25T23:17:40.422Z,83.07
2023-01-25T23:20:11.094Z,83.06
2023-01-25T23:22:40.289Z,83.00
2023-01-25T23:25:11.564Z,82.77
2023-01-25T23:27:39.963Z,83.05
2023-01-25T23:30:11.430Z,83.07
2023-01-25T23:32:39.942Z,82.77
2023-01-25T23:35:08.931Z,82.87
2023-01-25T23:37:37.369Z,83.12
2023-01-25T23:40:09.175Z,82.79
2023-01-25T23:42:39.487Z,83.18
2023-01-25T23:45:10.284Z,83.09
2023-01-25T23:47:39.256Z,83.02
2023-01-25T23:50:09.199Z,83.16
2023-01-25T23:52:37.968Z,82.99
2023-01-25T23:55:07.442Z,83.48
2023-01-25T23:57:36.088Z,83.40
